createdAt,value
2019-05-05T00:03:55.021Z,4.95
2019-05-05T00:09:00.973Z,4.62
2019-05-05T00:14:26.093Z,4.62
2019-05-05T00:19:33.396Z,4.75
2019-05-05T00:24:39.952Z,3.60
2019-05-05T00:29:45.906Z,6.95
2019-05-05T00:34:52.539Z,5.00
2019-05-05T00:39:58.724Z,5.30
2019-05-05T00:45:06.631Z,4.08
2019-05-05T00:50:14.652Z,4.03
2019-05-05T00:55:20.626Z,4.50
2019-05-05T01:00:37.650Z,5.80
2019-05-05T01:05:47.824Z,18.80
2019-05-05T01:10:54.790Z,9.48
2019-05-05T01:16:01.102Z,18.27
2019-05-05T01:21:07.478Z,15.85
2019-05-05T01:26:14.376Z,12.45
2019-05-05T01:31:21.486Z,19.25
2019-05-05T01:36:27.851Z,21.10
2019-05-05T01:41:35.464Z,15.28
2019-05-05T01:51:46.376Z,14.58
2019-05-05T01:56:52.652Z,16.40
2019-05-05T02:01:59.650Z,8.00
2019-05-05T02:07:06.331Z,4.58
2019-05-05T02:12:12.306Z,2.47
2019-05-05T02:17:18.274Z,4.58
2019-05-05T02:22:25.281Z,7.50
2019-05-05T02:27:34.226Z,4.20
2019-05-05T02:32:47.861Z,5.10
2019-05-05T02:37:55.774Z,9.95
2019-05-05T02:43:01.582Z,7.53
2019-05-05T02:48:10.140Z,8.15
2019-05-05T02:53:16.084Z,3.30
2019-05-05T02:58:24.465Z,6.08
2019-05-05T03:03:31.777Z,5.62
2019-05-05T03:08:39.513Z,6.22
2019-05-05T03:13:48.427Z,6.00
2019-05-05T03:18:55.018Z,8.28
2019-05-05T03:24:03.720Z,8.13
2019-05-05T03:34:17.013Z,7.50
2019-05-05T03:39:30.264Z,4.03
2019-05-05T03:44:41.462Z,5.67
2019-05-05T03:49:47.744Z,6.78
2019-05-05T03:54:54.293Z,7.87
2019-05-05T04:00:00.816Z,9.53
2019-05-05T04:05:09.004Z,14.30
2019-05-05T04:10:15.157Z,32.48
2019-05-05T04:15:24.305Z,20.75
2019-05-05T04:25:36.411Z,14.03
2019-05-05T04:30:44.302Z,10.88
2019-05-05T04:35:50.224Z,16.60
2019-05-05T04:40:56.577Z,27.50
2019-05-05T04:46:04.521Z,43.70
2019-05-05T04:51:26.918Z,75.80
2019-05-05T04:56:34.278Z,56.33
2019-05-05T05:01:40.729Z,38.28
2019-05-05T05:06:48.644Z,46.18
2019-05-05T05:11:54.791Z,41.77
2019-05-05T05:17:03.504Z,42.25
2019-05-05T05:22:09.744Z,43.13
2019-05-05T05:27:16.272Z,27.90
2019-05-05T05:32:24.537Z,26.45
2019-05-05T05:42:35.393Z,23.92
2019-05-05T05:47:56.268Z,13.37
2019-05-05T05:53:04.578Z,28.55
2019-05-05T05:58:10.370Z,22.65
2019-05-05T06:03:16.339Z,24.30
2019-05-05T06:08:24.136Z,3.75
2019-05-05T06:13:30.230Z,12.50
2019-05-05T06:18:36.393Z,6.10
2019-05-05T06:23:43.775Z,38.20
2019-05-05T06:28:50.088Z,4.37
2019-05-05T06:33:56.049Z,7.53
2019-05-05T06:39:04.460Z,3.02
2019-05-05T06:44:14.093Z,3.12
2019-05-05T06:49:20.143Z,4.87
2019-05-05T06:54:26.288Z,2.58
2019-05-05T06:59:32.358Z,3.30
2019-05-05T07:04:38.438Z,2.70
2019-05-05T07:09:44.557Z,1.52
2019-05-05T07:14:50.481Z,1.57
2019-05-05T07:19:56.930Z,2.62
2019-05-05T07:25:04.712Z,2.42
2019-05-05T07:30:14.029Z,2.10
2019-05-05T07:35:21.860Z,2.02
2019-05-05T07:40:28.016Z,1.47
2019-05-05T07:45:34.457Z,2.25
2019-05-05T07:50:40.867Z,3.00
2019-05-05T07:55:47.475Z,2.15
2019-05-05T08:00:54.189Z,3.25
2019-05-05T08:06:00.320Z,1.77
2019-05-05T08:11:06.399Z,3.37
2019-05-05T08:16:30.868Z,2.15
2019-05-05T08:21:37.400Z,2.00
2019-05-05T08:26:54.664Z,1.55
2019-05-05T08:32:04.311Z,1.57
2019-05-05T08:37:10.046Z,3.35
2019-05-05T08:42:16.240Z,1.85
2019-05-05T08:47:24.598Z,3.50
2019-05-05T08:52:30.422Z,2.90
2019-05-05T08:57:38.028Z,1.75
2019-05-05T09:02:44.007Z,2.70
2019-05-05T09:07:50.375Z,4.53
2019-05-05T09:12:56.452Z,3.22
2019-05-05T09:18:04.968Z,2.00
2019-05-05T09:23:11.275Z,1.72
2019-05-05T09:28:23.918Z,5.70
2019-05-05T09:33:30.265Z,1.40
2019-05-05T09:38:36.443Z,3.10
2019-05-05T09:43:44.606Z,1.52
2019-05-05T09:48:50.885Z,3.72
2019-05-05T09:54:10.269Z,1.90
2019-05-05T09:59:04.935Z,1.37
2019-05-05T10:04:14.835Z,1.50
2019-05-05T10:09:21.193Z,1.77
2019-05-05T10:14:27.475Z,1.40
2019-05-05T10:19:33.574Z,2.10
2019-05-05T10:24:50.668Z,1.67
2019-05-05T10:35:04.715Z,3.12
2019-05-05T10:45:24.421Z,2.42
2019-05-05T10:50:30.652Z,1.72
2019-05-05T10:55:36.996Z,2.47
2019-05-05T11:00:51.178Z,1.50
2019-05-05T11:05:57.787Z,3.70
2019-05-05T11:11:04.322Z,1.70
2019-05-05T11:16:10.645Z,2.67
2019-05-05T11:21:16.760Z,2.47
2019-05-05T11:26:24.669Z,2.12
2019-05-05T11:31:30.848Z,3.33
2019-05-05T11:36:39.608Z,2.27
2019-05-05T11:41:45.683Z,2.05
2019-05-05T11:46:52.008Z,2.55
2019-05-05T11:51:58.395Z,1.42
2019-05-05T11:57:04.608Z,1.45
2019-05-05T12:02:10.849Z,2.10
2019-05-05T12:07:16.918Z,3.65
2019-05-05T12:12:23.015Z,2.05
2019-05-05T12:17:35.566Z,3.15
2019-05-05T12:22:41.630Z,3.17
2019-05-05T12:28:01.637Z,3.10
2019-05-05T12:33:08.034Z,2.35
2019-05-05T12:38:14.272Z,2.58
2019-05-05T12:43:20.412Z,2.80
2019-05-05T12:48:28.632Z,1.95
2019-05-05T12:53:34.610Z,2.15
2019-05-05T12:58:40.906Z,2.90
2019-05-05T13:03:46.962Z,1.92
2019-05-05T13:08:53.347Z,1.90
2019-05-05T13:13:59.636Z,2.33
2019-05-05T13:19:07.847Z,2.40
2019-05-05T13:34:41.159Z,4.10
2019-05-05T13:39:48.004Z,3.37
2019-05-05T13:44:56.876Z,2.22
2019-05-05T13:50:04.907Z,3.62
2019-05-05T13:55:13.876Z,2.45
2019-05-05T14:00:21.881Z,1.70
2019-05-05T14:05:28.322Z,1.70
2019-05-05T14:10:34.748Z,1.35
2019-05-05T14:15:40.863Z,4.17
2019-05-05T14:20:47.142Z,4.42
2019-05-05T14:25:54.462Z,3.25
2019-05-05T14:31:02.160Z,0.98
2019-05-05T14:36:11.024Z,2.20
2019-05-05T14:41:16.935Z,2.25
2019-05-05T14:46:23.555Z,2.65
2019-05-05T14:51:29.914Z,0.80
2019-05-05T14:56:36.957Z,1.20
2019-05-05T15:01:44.781Z,1.10
2019-05-05T15:06:55.624Z,1.75
2019-05-05T15:12:14.211Z,2.40
2019-05-05T15:22:25.524Z,3.15
2019-05-05T15:27:31.542Z,2.37
2019-05-05T15:32:37.773Z,5.15
2019-05-05T15:37:44.044Z,2.05
2019-05-05T15:42:50.375Z,2.05
2019-05-05T15:47:56.962Z,3.27
2019-05-05T15:53:03.901Z,2.08
2019-05-05T15:58:10.339Z,2.42
2019-05-05T16:03:16.453Z,5.33
2019-05-05T16:08:22.542Z,13.05
2019-05-05T16:13:28.915Z,4.50
2019-05-05T16:18:36.850Z,3.50
2019-05-05T16:29:01.617Z,6.25
2019-05-05T16:34:07.747Z,5.85
2019-05-05T16:39:13.796Z,4.65
2019-05-05T16:44:23.429Z,2.83
2019-05-05T16:49:29.558Z,5.05
2019-05-05T16:54:37.275Z,3.20
2019-05-05T16:59:44.196Z,3.90
2019-05-05T17:04:50.445Z,4.40
2019-05-05T17:09:56.708Z,3.60
2019-05-05T17:15:08.527Z,5.45
2019-05-05T17:20:25.326Z,4.87
2019-05-05T17:25:34.147Z,5.55
2019-05-05T17:30:40.046Z,5.15
2019-05-05T17:35:46.030Z,4.97
2019-05-05T17:40:51.793Z,5.87
2019-05-05T17:46:00.856Z,5.80
2019-05-05T17:51:11.514Z,10.23
2019-05-05T17:56:17.790Z,11.88
2019-05-05T18:01:24.079Z,9.20
2019-05-05T18:06:47.551Z,25.55
2019-05-05T18:11:55.884Z,27.45
2019-05-05T18:17:04.105Z,34.10
2019-05-05T18:27:15.218Z,22.75
2019-05-05T18:32:21.148Z,20.62
2019-05-05T18:37:27.278Z,18.40
2019-05-05T18:42:33.976Z,20.40
2019-05-05T18:47:40.127Z,11.43
2019-05-05T18:52:47.268Z,22.25
2019-05-05T18:57:54.177Z,25.57
2019-05-05T19:03:01.741Z,15.30
2019-05-05T19:08:11.090Z,17.25
2019-05-05T19:13:18.130Z,10.98
2019-05-05T19:18:24.608Z,13.05
2019-05-05T19:23:30.832Z,10.23
2019-05-05T19:28:44.252Z,12.95
2019-05-05T19:33:44.518Z,9.93
2019-05-05T19:38:50.787Z,9.75
2019-05-05T19:43:56.867Z,12.28
2019-05-05T19:49:19.122Z,8.00
2019-05-05T19:54:25.205Z,10.38
2019-05-05T19:59:31.384Z,10.68
2019-05-05T20:04:37.441Z,13.08
2019-05-05T20:09:43.684Z,12.85
2019-05-05T20:14:49.892Z,10.93
2019-05-05T20:19:55.967Z,11.08
2019-05-05T20:25:04.240Z,8.70
2019-05-05T20:35:19.626Z,10.43
2019-05-05T20:40:27.227Z,10.95
2019-05-05T20:45:34.842Z,9.48
2019-05-05T20:50:41.092Z,11.15
2019-05-05T20:55:46.990Z,8.43
2019-05-05T21:00:54.808Z,9.20
2019-05-05T21:06:00.463Z,11.40
2019-05-05T21:11:07.555Z,9.80
2019-05-05T21:16:14.159Z,10.03
2019-05-05T21:21:22.075Z,11.35
2019-05-05T21:31:50.997Z,11.30
2019-05-05T21:36:56.967Z,10.18
2019-05-05T21:42:04.688Z,8.95
2019-05-05T21:47:10.759Z,8.45
2019-05-05T21:52:21.227Z,8.08
2019-05-05T21:57:36.521Z,9.78
2019-05-05T22:02:44.053Z,10.90
2019-05-05T22:12:55.050Z,9.85
2019-05-05T22:18:01.014Z,8.93
2019-05-05T22:23:06.986Z,16.35
2019-05-05T22:28:12.889Z,12.68
2019-05-05T22:33:19.338Z,10.60
2019-05-05T22:38:25.309Z,22.35
2019-05-05T22:43:31.281Z,14.20
2019-05-05T22:48:37.149Z,15.45
2019-05-05T22:53:43.990Z,12.25
2019-05-05T22:58:50.242Z,13.05
2019-05-05T23:04:09.918Z,9.43
2019-05-05T23:09:15.989Z,17.10
2019-05-05T23:14:30.044Z,11.63
2019-05-05T23:19:39.941Z,12.90
2019-05-05T23:24:47.420Z,15.93
2019-05-05T23:34:58.536Z,20.93
2019-05-05T23:40:06.044Z,23.37
2019-05-05T23:50:17.481Z,21.03
2019-05-05T23:55:24.190Z,19.57
